Terminal Aerodrome Forecast
Issued by NWS

Home | Current Version | Previous Version | Text Only | Print | Product List | Glossary On
Versions: 1 2 3 4 5 6 7 8 9 10 11 12 13 14 15 16 17 18 19 20 21 22
000
FTUS46 KOTX 241023 AAA
TAFCOE
TAF AMD
KCOE 241023Z 2410/2506 03005KT P6SM BKN001
     FM241400 04006KT P6SM VCFG SCT010
     FM241800 05007KT P6SM SKC=

USA.gov is the U.S. government's official web portal to all federal, state and local government web resources and services.